createdAt,value
2022-08-05T03:15:39.337Z,0.80
2022-08-05T03:18:09.566Z,0.73
2022-08-05T03:20:48.645Z,0.68
2022-08-05T03:23:18.905Z,0.50
2022-08-05T03:26:04.896Z,0.50
2022-08-05T03:28:44.798Z,0.68
2022-08-05T03:31:55.343Z,0.60
2022-08-05T03:34:06.607Z,0.68
2022-08-05T03:36:37.016Z,0.80
2022-08-05T03:39:13.118Z,0.60
2022-08-05T03:41:52.534Z,0.52
2022-08-05T03:44:22.572Z,0.60
2022-08-05T03:46:52.963Z,0.63
2022-08-05T03:49:24.131Z,0.63
2022-08-05T03:52:48.708Z,0.52
2022-08-05T03:56:10.053Z,0.80
2022-08-05T03:57:56.741Z,0.55
2022-08-05T04:11:10.097Z,0.60
2022-08-05T04:13:51.228Z,0.50
2022-08-05T04:16:24.309Z,0.82
2022-08-05T04:18:57.883Z,0.55
2022-08-05T04:22:05.764Z,0.63
2022-08-05T04:24:19.456Z,0.50
2022-08-05T04:30:21.801Z,0.50
2022-08-05T04:32:51.633Z,0.68
2022-08-05T04:35:21.924Z,0.52
2022-08-05T04:38:02.768Z,0.60
2022-08-05T05:07:52.988Z,0.40
2022-08-05T05:10:27.022Z,0.68
2022-08-05T05:12:59.984Z,0.50
2022-08-05T05:15:57.219Z,0.50
2022-08-05T05:36:08.177Z,0.60
2022-08-05T05:38:40.205Z,0.60
2022-08-05T05:41:12.644Z,0.50
2022-08-05T05:43:56.552Z,0.50
2022-08-05T05:46:28.864Z,0.57
2022-08-05T05:48:59.455Z,0.57
2022-08-05T05:51:49.974Z,0.50
2022-08-05T05:54:20.673Z,0.60
2022-08-05T05:56:50.713Z,0.50
2022-08-05T05:59:23.211Z,0.52
2022-08-05T06:01:59.049Z,0.60
2022-08-05T06:04:28.916Z,0.63
2022-08-05T06:06:58.903Z,0.52
2022-08-05T06:09:51.400Z,0.50
2022-08-05T06:12:21.371Z,0.50
2022-08-05T06:14:51.813Z,0.57
2022-08-05T06:17:24.462Z,0.60
2022-08-05T06:20:01.170Z,0.70
2022-08-05T06:22:33.341Z,0.70
2022-08-05T06:25:59.173Z,0.50
2022-08-05T06:28:11.283Z,0.65
2022-08-05T06:30:47.162Z,0.50
2022-08-05T06:33:55.008Z,0.60
2022-08-05T06:36:10.406Z,0.50
2022-08-05T06:38:40.397Z,0.50
2022-08-05T06:41:17.774Z,0.60
2022-08-05T06:43:59.013Z,0.80
2022-08-05T06:46:30.753Z,0.82
2022-08-05T06:49:01.668Z,0.50
2022-08-05T06:51:32.350Z,0.60
2022-08-05T06:54:03.181Z,0.57
2022-08-05T06:56:35.154Z,0.55
2022-08-05T06:59:11.969Z,0.90
2022-08-05T07:01:42.790Z,0.65
2022-08-05T07:04:16.040Z,0.45
2022-08-05T07:06:50.479Z,0.60
2022-08-05T07:09:20.427Z,0.60
2022-08-05T07:12:00.629Z,0.75
2022-08-05T07:14:48.904Z,1.45
2022-08-05T07:17:59.724Z,1.35
2022-08-05T07:23:04.571Z,1.08
2022-08-05T07:25:55.340Z,0.90
2022-08-05T07:28:24.382Z,1.02
2022-08-05T07:30:55.289Z,1.67
2022-08-05T07:33:37.120Z,0.90
2022-08-05T07:36:21.262Z,1.20
2022-08-05T07:38:54.802Z,0.80
2022-08-05T07:42:13.376Z,0.90
2022-08-05T07:44:19.135Z,0.85
2022-08-05T07:46:50.297Z,0.90
2022-08-05T07:49:21.770Z,1.10
2022-08-05T07:51:54.363Z,0.90
2022-08-05T07:54:30.942Z,0.80
2022-08-05T07:57:22.438Z,0.80
2022-08-05T07:59:52.368Z,0.80
2022-08-05T08:02:31.279Z,1.10
2022-08-05T08:05:18.443Z,0.90
2022-08-05T08:07:59.523Z,1.58
2022-08-05T08:10:31.599Z,0.90
2022-08-05T08:13:02.936Z,0.90
2022-08-05T08:16:33.469Z,1.58
2022-08-05T08:18:25.407Z,1.20
2022-08-05T08:21:02.819Z,0.93
2022-08-05T08:24:02.806Z,1.10
2022-08-05T08:26:27.017Z,1.98
2022-08-05T08:31:39.729Z,1.45
2022-08-05T08:34:11.231Z,1.13
2022-08-05T08:36:47.376Z,0.80
2022-08-05T08:39:20.805Z,0.70
2022-08-05T08:41:59.767Z,0.75
2022-08-05T08:45:23.924Z,0.70
2022-08-05T08:48:05.597Z,0.90
2022-08-05T08:50:31.212Z,0.88
2022-08-05T08:53:08.043Z,1.00
2022-08-05T10:08:37.365Z,0.65
2022-08-05T10:11:20.670Z,0.50
2022-08-05T10:13:54.738Z,1.40
2022-08-05T10:16:41.729Z,0.65
2022-08-05T10:19:23.609Z,0.68
2022-08-05T10:22:02.017Z,0.60
2022-08-05T10:24:35.181Z,0.50
2022-08-05T10:30:41.444Z,0.60
2022-08-05T10:32:51.906Z,0.60
2022-08-05T10:35:19.320Z,0.90
2022-08-05T10:37:49.931Z,0.90
2022-08-05T10:40:43.625Z,0.70
2022-08-05T10:43:23.179Z,0.60
2022-08-05T10:46:06.278Z,0.60
2022-08-05T10:48:56.933Z,0.60
2022-08-05T10:51:29.675Z,0.60
2022-08-05T10:54:05.787Z,0.70
2022-08-05T10:56:58.582Z,0.50
2022-08-05T11:00:02.261Z,0.60
2022-08-05T11:02:37.500Z,0.50
2022-08-05T11:05:13.602Z,0.60
2022-08-05T11:26:04.789Z,0.50
2022-08-05T11:28:37.343Z,0.50
2022-08-05T11:31:07.303Z,0.65
2022-08-05T11:33:59.381Z,1.08
2022-08-05T11:36:52.668Z,0.50
2022-08-05T11:39:41.349Z,0.60
2022-08-05T11:42:19.912Z,0.80
2022-08-05T11:44:53.388Z,0.70
2022-08-05T11:47:48.479Z,0.85
2022-08-05T11:50:15.195Z,0.45
2022-08-05T11:52:48.434Z,0.70
2022-08-05T11:55:19.486Z,0.57
2022-08-05T11:58:09.468Z,0.60
2022-08-05T12:00:41.373Z,0.57
2022-08-05T12:03:23.906Z,0.50
2022-08-05T12:06:02.265Z,0.68
2022-08-05T12:08:33.002Z,0.75
2022-08-05T12:11:05.663Z,0.70
2022-08-05T12:13:48.890Z,0.73
2022-08-05T12:16:26.976Z,0.70
2022-08-05T12:18:57.640Z,0.68
2022-08-05T12:21:29.653Z,0.50
2022-08-05T12:24:05.248Z,0.80
2022-08-05T12:33:07.529Z,0.55
2022-08-05T12:35:55.086Z,0.63
2022-08-05T12:38:31.436Z,0.80
2022-08-05T12:41:01.989Z,1.13
2022-08-05T12:43:32.411Z,0.57
2022-08-05T12:46:03.332Z,0.60
2022-08-05T12:48:41.558Z,0.40
2022-08-05T12:52:12.897Z,0.65
2022-08-05T12:54:16.568Z,0.93
2022-08-05T12:56:54.580Z,1.35
2022-08-05T12:59:46.447Z,0.60
2022-08-05T13:02:19.104Z,0.50
2022-08-05T13:04:52.607Z,0.50
2022-08-05T13:07:57.511Z,0.60
2022-08-05T13:10:20.449Z,0.70
2022-08-05T13:12:57.736Z,0.95
2022-08-05T13:15:50.252Z,0.68
2022-08-05T13:18:24.165Z,1.15
2022-08-05T13:20:54.078Z,0.85
2022-08-05T13:23:24.523Z,0.80
2022-08-05T13:26:01.009Z,0.90
2022-08-05T13:28:32.169Z,0.82
2022-08-05T15:46:00.510Z,1.00
2022-08-05T15:48:31.962Z,0.50
2022-08-05T15:51:05.571Z,0.70
2022-08-05T15:53:38.346Z,0.90
2022-08-05T15:56:21.117Z,0.50
2022-08-05T15:58:51.442Z,0.47
2022-08-05T16:01:21.409Z,1.10
2022-08-05T16:03:59.649Z,0.57
2022-08-05T16:06:29.688Z,0.60
2022-08-05T16:09:00.163Z,0.50
2022-08-05T16:11:42.308Z,0.50
2022-08-05T16:14:17.306Z,0.50
2022-08-05T16:16:47.941Z,0.50
2022-08-05T16:19:25.249Z,0.40
2022-08-05T16:22:10.454Z,0.65
2022-08-05T16:24:51.671Z,0.40
2022-08-05T16:27:47.334Z,0.43
2022-08-05T16:30:23.368Z,0.60
2022-08-05T16:32:57.213Z,0.50
2022-08-05T16:35:28.433Z,0.50
2022-08-05T16:38:24.279Z,0.50
2022-08-05T16:40:59.891Z,0.75
2022-08-05T16:43:36.124Z,0.60
2022-08-05T16:46:23.912Z,0.40
2022-08-05T16:48:56.114Z,0.30
2022-08-05T16:51:31.079Z,0.30
2022-08-05T16:54:17.090Z,0.30
2022-08-05T16:56:52.243Z,0.30
2022-08-05T16:59:22.765Z,0.43
2022-08-05T17:01:55.444Z,0.50
2022-08-05T17:04:29.804Z,0.40
2022-08-05T17:07:11.282Z,0.30
2022-08-05T17:09:57.206Z,0.40
2022-08-05T17:12:51.724Z,0.30
2022-08-05T19:01:47.669Z,0.40
2022-08-05T19:04:23.903Z,0.30
2022-08-05T19:09:23.964Z,0.30
2022-08-05T19:11:59.481Z,0.30
2022-08-05T19:14:52.098Z,0.30
2022-08-05T19:17:22.106Z,0.30
2022-08-05T19:19:52.003Z,0.47
2022-08-05T19:22:22.729Z,0.30
2022-08-05T19:25:02.664Z,0.30
2022-08-05T19:27:33.868Z,0.32
2022-08-05T19:30:05.047Z,0.40
2022-08-05T19:32:35.038Z,0.30
2022-08-05T19:35:06.664Z,0.38
2022-08-05T19:38:04.660Z,0.30
2022-08-05T19:40:27.077Z,0.30
2022-08-05T19:43:00.898Z,0.40
2022-08-05T19:45:36.547Z,0.30
2022-08-05T19:48:07.733Z,0.30
2022-08-05T19:50:45.112Z,0.40
2022-08-05T19:53:16.033Z,0.40
2022-08-05T19:56:14.086Z,0.30
2022-08-05T19:58:57.736Z,0.30
2022-08-05T22:57:11.507Z,0.40
2022-08-05T22:59:43.602Z,0.30
2022-08-05T23:02:16.930Z,0.30
2022-08-05T23:04:52.210Z,0.40
2022-08-05T23:07:22.996Z,0.37
2022-08-05T23:10:01.485Z,0.40
2022-08-05T23:12:33.314Z,0.40
2022-08-05T23:15:08.700Z,0.40
2022-08-05T23:18:00.127Z,0.40
2022-08-05T23:20:29.500Z,0.40
2022-08-05T23:22:59.708Z,0.40
2022-08-05T23:25:51.408Z,0.35
2022-08-05T23:28:19.829Z,0.50
2022-08-05T23:30:53.174Z,0.45
2022-08-05T23:34:03.035Z,0.40
2022-08-05T23:36:14.257Z,0.30
2022-08-05T23:38:45.380Z,0.38
2022-08-05T23:41:16.067Z,0.30
2022-08-05T23:44:05.660Z,0.35
2022-08-05T23:46:37.441Z,0.60
2022-08-05T23:49:15.816Z,0.40
2022-08-05T23:52:05.544Z,0.40
2022-08-05T23:54:38.479Z,0.50
